createdAt,value
2022-08-03T00:00:26.594Z,4.40
2022-08-03T00:02:54.127Z,4.38
2022-08-03T00:05:21.594Z,4.38
2022-08-03T00:07:50.089Z,4.30
2022-08-03T00:10:17.692Z,3.60
2022-08-03T00:12:45.105Z,4.03
2022-08-03T00:15:16.323Z,3.92
2022-08-03T00:17:52.518Z,3.67
2022-08-03T00:20:20.607Z,4.05
2022-08-03T00:22:47.857Z,4.00
2022-08-03T00:25:15.161Z,3.90
2022-08-03T00:27:42.442Z,3.90
2022-08-03T00:30:09.943Z,3.63
2022-08-03T00:32:37.224Z,3.95
2022-08-03T00:35:09.222Z,4.35
2022-08-03T00:37:40.670Z,2.95
2022-08-03T00:40:10.375Z,3.70
2022-08-03T00:42:47.056Z,3.53
2022-08-03T00:45:14.379Z,3.00
2022-08-03T00:47:41.779Z,3.33
2022-08-03T00:50:09.270Z,2.78
2022-08-03T00:52:36.616Z,2.80
2022-08-03T00:55:05.039Z,3.00
2022-08-03T00:57:33.112Z,2.70
2022-08-03T01:00:01.043Z,2.80
2022-08-03T01:02:29.393Z,2.58
2022-08-03T01:04:57.206Z,2.95
2022-08-03T01:07:47.531Z,2.85
2022-08-03T01:10:18.455Z,2.83
2022-08-03T01:13:06.030Z,2.53
2022-08-03T01:15:51.003Z,2.53
2022-08-03T01:18:21.002Z,2.58
2022-08-03T01:20:50.342Z,2.58
2022-08-03T01:23:17.597Z,2.22
2022-08-03T01:26:03.384Z,2.30
2022-08-03T01:28:42.940Z,2.75
2022-08-03T01:31:12.546Z,2.45
2022-08-03T01:33:49.195Z,2.40
2022-08-03T01:36:27.375Z,2.50
2022-08-03T01:38:56.736Z,2.80
2022-08-03T01:41:26.822Z,2.58
2022-08-03T01:44:27.445Z,2.53
2022-08-03T01:46:47.602Z,2.47
2022-08-03T01:49:17.194Z,2.35
2022-08-03T01:51:58.567Z,2.95
2022-08-03T01:54:33.593Z,3.38
2022-08-03T01:57:00.933Z,3.20
2022-08-03T01:59:29.869Z,3.42
2022-08-03T02:02:28.535Z,3.70
2022-08-03T02:04:45.379Z,3.85
2022-08-03T02:07:13.191Z,4.88
2022-08-03T02:09:41.463Z,4.30
2022-08-03T02:12:11.976Z,3.53
2022-08-03T02:14:40.268Z,3.80
2022-08-03T02:17:08.482Z,3.03
2022-08-03T02:19:36.479Z,2.75
2022-08-03T02:22:05.977Z,3.03
2022-08-03T02:24:33.424Z,2.70
2022-08-03T02:27:01.895Z,2.50
2022-08-03T02:29:39.801Z,2.60
2022-08-03T02:32:10.761Z,3.08
2022-08-03T02:34:38.654Z,2.80
2022-08-03T02:37:06.613Z,2.45
2022-08-03T02:39:35.219Z,2.50
2022-08-03T02:42:03.167Z,2.10
2022-08-03T02:44:35.017Z,2.50
2022-08-03T02:47:07.334Z,2.00
2022-08-03T02:49:50.607Z,3.03
2022-08-03T02:52:20.786Z,2.50
2022-08-03T02:54:48.640Z,2.25
2022-08-03T02:57:16.133Z,2.08
2022-08-03T02:59:43.647Z,2.10
2022-08-03T03:02:11.422Z,2.42
2022-08-03T03:04:38.798Z,2.13
2022-08-03T03:07:27.157Z,2.15
2022-08-03T03:09:56.994Z,2.03
2022-08-03T03:12:24.592Z,2.47
2022-08-03T03:14:51.963Z,2.17
2022-08-03T03:17:20.413Z,2.65
2022-08-03T03:19:48.071Z,2.08
2022-08-03T03:22:15.915Z,2.38
2022-08-03T03:24:43.766Z,2.55
2022-08-03T03:27:11.277Z,2.35
2022-08-03T03:29:44.238Z,2.15
2022-08-03T03:32:11.627Z,2.47
2022-08-03T03:34:39.091Z,2.97
2022-08-03T03:37:06.658Z,2.50
2022-08-03T03:39:33.982Z,2.00
2022-08-03T03:42:01.697Z,2.53
2022-08-03T03:44:29.597Z,2.50
2022-08-03T03:46:58.479Z,2.47
2022-08-03T03:49:26.243Z,2.35
2022-08-03T03:51:55.023Z,2.30
2022-08-03T03:54:22.399Z,2.40
2022-08-03T03:56:53.133Z,2.47
2022-08-03T03:59:20.457Z,2.15
2022-08-03T04:01:47.777Z,2.10
2022-08-03T04:04:44.949Z,2.42
2022-08-03T04:07:31.069Z,2.50
2022-08-03T04:10:17.221Z,2.28
2022-08-03T04:12:49.953Z,2.40
2022-08-03T04:15:20.265Z,2.60
2022-08-03T04:17:47.925Z,2.13
2022-08-03T04:20:16.748Z,2.17
2022-08-03T04:22:44.075Z,2.28
2022-08-03T04:25:14.790Z,1.95
2022-08-03T04:27:42.455Z,2.65
2022-08-03T04:30:09.942Z,2.60
2022-08-03T04:32:39.305Z,2.38
2022-08-03T04:35:08.829Z,2.50
2022-08-03T04:37:50.175Z,2.28
2022-08-03T04:40:22.978Z,2.22
2022-08-03T04:42:51.240Z,2.35
2022-08-03T04:45:20.068Z,2.78
2022-08-03T04:47:47.751Z,2.55
2022-08-03T04:50:19.446Z,2.50
2022-08-03T04:52:48.730Z,2.70
2022-08-03T04:55:32.136Z,2.47
2022-08-03T04:57:59.936Z,4.40
2022-08-03T05:00:27.613Z,5.10
2022-08-03T05:02:55.500Z,5.53
2022-08-03T05:05:23.035Z,4.35
2022-08-03T05:07:50.876Z,3.95
2022-08-03T05:10:18.473Z,4.78
2022-08-03T05:12:48.888Z,4.45
2022-08-03T05:15:16.447Z,4.88
2022-08-03T05:17:43.748Z,3.35
2022-08-03T05:20:11.490Z,4.20
2022-08-03T05:22:38.797Z,3.95
2022-08-03T05:25:06.291Z,3.85
2022-08-03T05:27:33.595Z,3.38
2022-08-03T05:30:31.224Z,3.42
2022-08-03T05:32:49.356Z,4.00
2022-08-03T05:36:01.223Z,3.92
2022-08-03T05:38:04.437Z,3.40
2022-08-03T05:40:33.391Z,3.60
2022-08-03T05:43:02.686Z,3.92
2022-08-03T05:45:30.064Z,3.42
2022-08-03T05:47:57.430Z,3.25
2022-08-03T05:50:24.792Z,3.42
2022-08-03T05:52:52.108Z,2.88
2022-08-03T05:55:19.597Z,3.63
2022-08-03T05:57:48.220Z,3.03
2022-08-03T06:00:17.250Z,3.60
2022-08-03T06:02:44.614Z,3.15
2022-08-03T06:05:12.070Z,3.10
2022-08-03T06:07:39.393Z,2.40
2022-08-03T06:10:36.859Z,2.70
2022-08-03T06:12:54.362Z,2.58
2022-08-03T06:15:22.117Z,2.20
2022-08-03T06:17:50.174Z,2.25
2022-08-03T06:20:21.398Z,2.47
2022-08-03T06:23:00.437Z,1.70
2022-08-03T06:25:29.073Z,2.17
2022-08-03T06:27:56.450Z,2.30
2022-08-03T06:30:23.886Z,1.63
2022-08-03T06:32:51.790Z,1.55
2022-08-03T06:35:19.699Z,1.55
2022-08-03T06:37:47.890Z,2.10
2022-08-03T06:40:16.310Z,2.15
2022-08-03T06:42:49.330Z,1.50
2022-08-03T06:45:17.781Z,1.90
2022-08-03T06:47:45.063Z,1.50
2022-08-03T06:50:16.445Z,1.80
2022-08-03T06:52:44.716Z,2.22
2022-08-03T06:55:11.986Z,1.60
2022-08-03T06:57:39.300Z,1.80
2022-08-03T07:00:11.845Z,1.92
2022-08-03T07:02:40.210Z,1.65
2022-08-03T07:05:08.247Z,1.40
2022-08-03T07:07:35.571Z,1.83
2022-08-03T07:10:02.892Z,2.17
2022-08-03T07:12:30.882Z,1.48
2022-08-03T07:15:01.125Z,1.60
2022-08-03T07:17:31.024Z,1.60
2022-08-03T07:19:58.706Z,2.20
2022-08-03T07:22:26.305Z,1.50
2022-08-03T07:24:53.626Z,1.50
2022-08-03T07:27:20.929Z,2.00
2022-08-03T07:29:48.236Z,1.70
2022-08-03T07:32:15.674Z,1.30
2022-08-03T07:34:43.199Z,1.30
2022-08-03T07:37:10.545Z,1.40
2022-08-03T07:39:37.867Z,1.63
2022-08-03T07:42:05.590Z,1.65
2022-08-03T07:44:32.892Z,1.70
2022-08-03T07:47:00.189Z,1.45
2022-08-03T07:49:30.907Z,1.63
2022-08-03T07:52:17.459Z,1.92
2022-08-03T07:54:45.049Z,1.70
2022-08-03T07:57:12.380Z,1.77
2022-08-03T07:59:56.808Z,1.70
2022-08-03T08:02:27.546Z,1.00
2022-08-03T08:04:55.110Z,1.58
2022-08-03T08:07:22.446Z,1.30
2022-08-03T08:09:51.140Z,1.67
2022-08-03T08:12:18.617Z,1.77
2022-08-03T08:14:46.848Z,1.60
2022-08-03T08:17:14.355Z,1.27
2022-08-03T08:19:43.833Z,1.50
2022-08-03T08:22:25.845Z,1.80
2022-08-03T08:24:58.273Z,1.30
2022-08-03T08:27:25.555Z,1.25
2022-08-03T08:29:55.752Z,1.40
2022-08-03T08:32:24.849Z,1.23
2022-08-03T08:34:52.122Z,1.40
2022-08-03T08:37:19.395Z,1.30
2022-08-03T08:39:46.682Z,1.65
2022-08-03T08:42:14.031Z,1.42
2022-08-03T08:44:41.424Z,1.50
2022-08-03T08:47:09.011Z,1.60
2022-08-03T08:49:37.203Z,1.15
2022-08-03T08:52:04.752Z,1.10
2022-08-03T08:54:53.045Z,0.93
2022-08-03T08:57:40.700Z,1.20
2022-08-03T09:00:10.429Z,1.73
2022-08-03T09:02:38.149Z,1.60
2022-08-03T09:05:07.594Z,1.20
2022-08-03T09:07:35.145Z,1.00
2022-08-03T09:10:12.162Z,0.90
2022-08-03T09:12:43.596Z,1.10
2022-08-03T09:15:42.342Z,1.45
2022-08-03T09:18:32.834Z,1.33
2022-08-03T09:21:30.658Z,1.23
2022-08-03T09:24:04.723Z,0.95
2022-08-03T09:26:33.454Z,1.50
2022-08-03T09:29:05.610Z,1.30
2022-08-03T09:31:34.639Z,1.10
2022-08-03T09:34:06.222Z,1.33
2022-08-03T09:36:47.333Z,1.30
2022-08-03T09:39:41.540Z,1.23
2022-08-03T09:42:10.645Z,1.60
2022-08-03T09:44:38.959Z,1.30
2022-08-03T09:47:06.581Z,1.20
2022-08-03T09:49:33.952Z,1.52
2022-08-03T09:52:32.074Z,1.45
2022-08-03T09:55:01.940Z,1.20
2022-08-03T09:57:32.575Z,1.17
2022-08-03T10:02:30.482Z,1.42
2022-08-03T10:04:57.772Z,1.45
2022-08-03T10:07:25.453Z,1.52
2022-08-03T10:10:30.445Z,1.70
2022-08-03T10:12:49.758Z,1.33
2022-08-03T10:16:23.555Z,1.30
2022-08-03T10:18:05.286Z,1.15
2022-08-03T10:20:33.803Z,1.20
2022-08-03T10:23:01.149Z,1.15
2022-08-03T10:25:32.949Z,1.10
2022-08-03T10:28:02.237Z,1.27
2022-08-03T10:30:30.167Z,1.60
2022-08-03T10:32:59.077Z,1.55
2022-08-03T10:35:26.961Z,1.50
2022-08-03T10:38:01.365Z,1.40
2022-08-03T10:43:37.617Z,1.27
2022-08-03T10:46:07.714Z,1.23
2022-08-03T10:48:36.386Z,1.40
2022-08-03T10:51:04.897Z,1.30
2022-08-03T10:53:35.997Z,1.77
2022-08-03T10:56:46.599Z,1.25
2022-08-03T10:59:09.849Z,1.00
2022-08-03T11:01:58.498Z,0.95
2022-08-03T11:04:29.752Z,1.23
2022-08-03T11:07:16.616Z,1.30
2022-08-03T11:09:45.041Z,1.05
2022-08-03T11:12:33.750Z,1.17
2022-08-03T11:15:02.323Z,1.00
2022-08-03T11:17:29.846Z,1.38
2022-08-03T11:19:58.486Z,1.00
2022-08-03T11:22:28.337Z,1.08
2022-08-03T11:24:57.097Z,0.75
2022-08-03T11:27:34.048Z,1.15
2022-08-03T11:30:07.701Z,1.23
2022-08-03T11:32:46.491Z,1.50
2022-08-03T11:35:21.790Z,1.08
2022-08-03T11:38:03.538Z,1.10
2022-08-03T11:40:41.756Z,0.95
2022-08-03T11:43:10.242Z,1.15
2022-08-03T11:45:38.181Z,1.35
2022-08-03T11:48:16.288Z,1.10
2022-08-03T11:50:45.527Z,1.20
2022-08-03T11:53:19.985Z,1.35
2022-08-03T11:55:53.205Z,1.10
2022-08-03T11:59:18.875Z,1.30
2022-08-03T12:01:10.724Z,1.23
2022-08-03T12:03:38.031Z,1.08
2022-08-03T12:06:09.796Z,1.23
2022-08-03T12:08:37.133Z,1.30
2022-08-03T12:11:08.722Z,1.17
2022-08-03T12:14:05.773Z,1.00
2022-08-03T12:16:28.754Z,1.08
2022-08-03T12:19:00.119Z,1.00
2022-08-03T12:21:27.649Z,1.02
2022-08-03T12:24:00.390Z,0.90
2022-08-03T12:26:28.682Z,1.00
2022-08-03T12:28:56.068Z,0.98
2022-08-03T12:31:23.492Z,1.00
2022-08-03T12:34:11.459Z,1.50
2022-08-03T12:36:39.266Z,0.63
2022-08-03T12:39:08.108Z,1.27
2022-08-03T12:41:36.846Z,1.27
2022-08-03T12:44:05.493Z,1.10
2022-08-03T12:46:34.285Z,1.05
2022-08-03T12:49:07.931Z,1.05
2022-08-03T12:51:55.169Z,1.00
2022-08-03T12:54:25.599Z,0.98
2022-08-03T12:57:04.846Z,1.02
2022-08-03T12:59:35.399Z,1.30
2022-08-03T13:02:14.960Z,1.00
2022-08-03T13:04:42.819Z,1.10
2022-08-03T13:07:14.284Z,0.90
2022-08-03T13:09:45.992Z,1.20
2022-08-03T13:12:14.652Z,1.20
2022-08-03T13:14:42.461Z,1.45
2022-08-03T13:17:09.821Z,1.20
2022-08-03T13:19:38.244Z,1.15
2022-08-03T13:22:12.783Z,1.70
2022-08-03T13:24:40.088Z,1.27
2022-08-03T13:28:04.517Z,1.30
2022-08-03T13:29:55.326Z,1.02
2022-08-03T13:32:22.991Z,1.42
2022-08-03T13:34:50.716Z,1.25
2022-08-03T13:37:18.199Z,1.13
2022-08-03T13:39:58.078Z,1.48
2022-08-03T13:42:28.463Z,1.30
2022-08-03T13:44:55.789Z,1.02
2022-08-03T13:47:23.254Z,1.05
2022-08-03T13:49:59.510Z,1.30
2022-08-03T13:52:29.495Z,1.15
2022-08-03T13:54:56.859Z,1.60
2022-08-03T13:58:02.299Z,0.90
2022-08-03T14:00:12.172Z,0.95
2022-08-03T14:02:39.516Z,1.20
2022-08-03T14:05:08.215Z,1.23
2022-08-03T14:07:35.599Z,1.20
2022-08-03T14:10:03.027Z,1.10
2022-08-03T14:12:30.399Z,0.90
2022-08-03T14:15:01.156Z,0.90
2022-08-03T14:17:42.335Z,1.13
2022-08-03T14:20:36.635Z,1.23
2022-08-03T14:23:03.455Z,1.02
2022-08-03T14:25:43.173Z,1.10
2022-08-03T14:28:18.351Z,0.95
2022-08-03T14:30:45.681Z,1.02
2022-08-03T14:33:13.096Z,0.90
2022-08-03T14:35:40.442Z,1.05
2022-08-03T14:38:07.925Z,0.80
2022-08-03T14:40:35.289Z,1.02
2022-08-03T14:43:02.670Z,0.73
2022-08-03T14:45:30.011Z,0.85
2022-08-03T14:50:32.571Z,0.90
2022-08-03T14:50:51.461Z,1.10
2022-08-03T14:53:19.744Z,1.10
2022-08-03T14:55:50.690Z,1.00
2022-08-03T14:58:20.744Z,1.17
2022-08-03T15:00:49.147Z,1.00
2022-08-03T15:03:17.417Z,1.05
2022-08-03T15:05:45.102Z,1.00
2022-08-03T15:08:12.476Z,1.10
2022-08-03T15:10:44.776Z,1.00
2022-08-03T15:13:16.907Z,1.00
2022-08-03T15:15:44.325Z,1.40
2022-08-03T15:18:11.621Z,1.00
2022-08-03T15:20:44.983Z,0.93
2022-08-03T15:23:13.933Z,1.10
2022-08-03T15:26:04.195Z,0.93
2022-08-03T15:28:28.516Z,0.88
2022-08-03T15:30:55.896Z,0.93
2022-08-03T15:33:23.341Z,0.90
2022-08-03T15:35:50.620Z,1.05
2022-08-03T15:38:18.150Z,1.20
2022-08-03T15:40:45.742Z,1.00
2022-08-03T15:43:13.133Z,0.90
2022-08-03T15:45:41.997Z,1.10
2022-08-03T15:48:09.674Z,1.38
2022-08-03T15:50:37.196Z,0.95
2022-08-03T15:53:05.056Z,0.90
2022-08-03T15:55:32.895Z,0.90
2022-08-03T15:59:09.240Z,1.00
2022-08-03T16:00:54.925Z,1.10
2022-08-03T16:03:22.253Z,1.20
2022-08-03T16:05:49.542Z,1.20
2022-08-03T16:08:16.817Z,0.98
2022-08-03T16:10:44.210Z,0.80
2022-08-03T16:13:11.786Z,0.90
2022-08-03T16:15:39.205Z,1.33
2022-08-03T16:18:09.872Z,1.05
2022-08-03T16:20:37.152Z,1.10
2022-08-03T16:23:11.367Z,1.10
2022-08-03T16:25:42.552Z,1.23
2022-08-03T16:30:45.373Z,1.20
2022-08-03T16:33:16.902Z,1.02
2022-08-03T16:35:44.915Z,1.23
2022-08-03T16:38:18.172Z,1.40
2022-08-03T16:40:47.491Z,1.30
2022-08-03T16:43:18.267Z,1.15
2022-08-03T16:45:47.040Z,1.13
2022-08-03T16:48:15.149Z,1.30
2022-08-03T16:50:42.508Z,1.55
2022-08-03T16:53:15.689Z,1.25
2022-08-03T16:55:53.267Z,1.15
2022-08-03T16:58:42.956Z,1.20
2022-08-03T17:01:20.829Z,1.38
2022-08-03T17:04:01.224Z,1.17
2022-08-03T17:06:34.716Z,1.35
2022-08-03T17:09:03.222Z,1.02
2022-08-03T17:11:32.120Z,1.30
2022-08-03T17:14:00.561Z,1.20
2022-08-03T17:16:28.307Z,1.38
2022-08-03T17:19:03.942Z,1.00
2022-08-03T17:21:32.410Z,1.20
2022-08-03T17:24:20.048Z,1.10
2022-08-03T17:26:50.039Z,1.40
2022-08-03T17:29:23.120Z,1.23
2022-08-03T17:31:53.179Z,1.30
2022-08-03T17:34:20.766Z,1.40
2022-08-03T17:37:27.216Z,1.60
2022-08-03T17:39:58.134Z,1.90
2022-08-03T17:45:15.905Z,1.42
2022-08-03T17:47:43.835Z,1.40
2022-08-03T17:50:23.393Z,1.40
2022-08-03T17:52:56.138Z,1.55
2022-08-03T17:55:56.441Z,1.63
2022-08-03T17:58:17.811Z,1.33
2022-08-03T18:01:59.656Z,1.70
2022-08-03T18:03:58.609Z,1.77
2022-08-03T18:06:29.822Z,1.80
2022-08-03T18:09:04.779Z,1.98
2022-08-03T18:11:35.575Z,2.35
2022-08-03T18:14:09.967Z,2.00
2022-08-03T18:16:56.096Z,2.30
2022-08-03T18:20:01.094Z,2.35
2022-08-03T18:22:13.264Z,2.47
2022-08-03T18:24:41.627Z,2.83
2022-08-03T18:27:10.990Z,2.40
2022-08-03T18:29:38.957Z,2.28
2022-08-03T18:32:13.258Z,2.92
2022-08-03T18:34:53.572Z,2.83
2022-08-03T18:40:11.852Z,3.03
2022-08-03T18:42:52.762Z,2.97
2022-08-03T18:45:55.875Z,2.97
2022-08-03T18:48:15.642Z,3.10
2022-08-03T18:50:50.880Z,2.53
2022-08-03T18:53:21.795Z,2.60
2022-08-03T18:56:07.375Z,2.50
2022-08-03T18:58:38.656Z,2.38
2022-08-03T19:01:15.456Z,2.70
2022-08-03T19:04:04.889Z,2.47
2022-08-03T19:06:32.618Z,2.55
2022-08-03T19:09:09.429Z,2.10
2022-08-03T19:12:12.363Z,2.50
2022-08-03T19:14:41.697Z,2.10
2022-08-03T19:17:10.865Z,2.40
2022-08-03T19:19:43.960Z,2.70
2022-08-03T19:22:15.997Z,2.17
2022-08-03T19:24:44.228Z,2.10
2022-08-03T19:27:12.602Z,1.83
2022-08-03T19:29:59.003Z,1.70
2022-08-03T19:32:31.825Z,1.90
2022-08-03T19:35:00.386Z,1.88
2022-08-03T19:37:38.075Z,1.98
2022-08-03T19:40:10.478Z,1.80
2022-08-03T19:42:40.919Z,2.03
2022-08-03T19:45:13.846Z,1.90
2022-08-03T19:47:47.002Z,2.40
2022-08-03T19:50:14.674Z,2.22
2022-08-03T19:52:43.956Z,1.80
2022-08-03T19:55:12.343Z,1.83
2022-08-03T19:57:41.579Z,1.95
2022-08-03T20:00:12.571Z,2.20
2022-08-03T20:02:41.795Z,1.60
2022-08-03T20:05:14.825Z,1.50
2022-08-03T20:07:47.587Z,1.90
2022-08-03T20:10:16.235Z,2.00
2022-08-03T20:12:44.844Z,1.80
2022-08-03T20:15:12.363Z,2.65
2022-08-03T20:17:56.903Z,2.45
2022-08-03T20:20:33.512Z,1.70
2022-08-03T20:23:01.711Z,1.63
2022-08-03T20:25:37.609Z,1.90
2022-08-03T20:28:14.277Z,1.58
2022-08-03T20:30:43.477Z,2.00
2022-08-03T20:33:10.884Z,1.67
2022-08-03T20:35:38.179Z,1.90
2022-08-03T20:40:36.769Z,1.55
2022-08-03T20:43:05.466Z,1.60
2022-08-03T20:45:59.415Z,1.83
2022-08-03T20:48:21.974Z,1.73
2022-08-03T20:50:49.802Z,2.10
2022-08-03T20:53:49.214Z,1.80
2022-08-03T20:56:05.586Z,1.80
2022-08-03T20:58:35.925Z,1.67
2022-08-03T21:01:04.016Z,1.60
2022-08-03T21:03:40.920Z,1.90
2022-08-03T21:06:27.403Z,1.70
2022-08-03T21:09:00.196Z,2.10
2022-08-03T21:11:41.602Z,1.70
2022-08-03T21:12:54.738Z,1.65
2022-08-03T21:13:05.867Z,3.28
2022-08-03T21:14:14.973Z,1.73
2022-08-03T21:16:44.662Z,2.08
2022-08-03T21:19:12.300Z,1.58
2022-08-03T21:21:40.174Z,1.65
2022-08-03T21:24:08.382Z,1.85
2022-08-03T21:26:38.724Z,1.58
2022-08-03T21:29:06.168Z,1.65
2022-08-03T21:31:33.487Z,1.60
2022-08-03T21:34:04.092Z,1.50
2022-08-03T21:36:32.522Z,1.50
2022-08-03T21:39:00.316Z,1.40
2022-08-03T21:41:29.429Z,1.48
2022-08-03T21:43:56.916Z,1.73
2022-08-03T21:46:24.273Z,1.50
2022-08-03T21:48:55.094Z,1.52
2022-08-03T21:51:24.574Z,1.60
2022-08-03T21:54:02.506Z,1.48
2022-08-03T21:56:36.995Z,1.50
2022-08-03T21:59:05.993Z,1.60
2022-08-03T22:01:35.208Z,1.58
2022-08-03T22:04:05.569Z,1.40
2022-08-03T22:06:34.453Z,1.80
2022-08-03T22:09:01.787Z,1.50
2022-08-03T22:11:29.203Z,1.77
2022-08-03T22:13:56.466Z,1.50
2022-08-03T22:16:23.885Z,1.88
2022-08-03T22:18:51.185Z,1.60
2022-08-03T22:21:28.000Z,1.83
2022-08-03T22:24:05.282Z,1.35
2022-08-03T22:26:35.522Z,1.38
2022-08-03T22:29:06.909Z,1.05
2022-08-03T22:31:57.763Z,1.52
2022-08-03T22:34:26.429Z,1.20
2022-08-03T22:36:56.275Z,1.27
2022-08-03T22:39:28.936Z,1.42
2022-08-03T22:41:59.053Z,1.20
2022-08-03T22:44:30.415Z,1.35
2022-08-03T22:46:58.500Z,5.40
2022-08-03T22:49:27.843Z,1.20
2022-08-03T22:51:55.437Z,1.10
2022-08-03T22:54:23.748Z,1.30
2022-08-03T22:56:51.672Z,1.23
2022-08-03T22:59:40.955Z,1.27
2022-08-03T23:02:20.562Z,1.10
2022-08-03T23:04:58.630Z,1.20
2022-08-03T23:07:31.010Z,0.98
2022-08-03T23:09:58.682Z,1.80
2022-08-03T23:12:26.089Z,1.75
2022-08-03T23:14:55.210Z,1.50
2022-08-03T23:17:27.203Z,1.42
2022-08-03T23:19:55.302Z,2.08
2022-08-03T23:22:30.656Z,1.40
2022-08-03T23:24:59.315Z,1.55
2022-08-03T23:27:28.169Z,1.30
2022-08-03T23:29:58.314Z,1.83
2022-08-03T23:32:29.753Z,1.90
2022-08-03T23:36:17.238Z,1.75
2022-08-03T23:38:23.127Z,1.98
2022-08-03T23:40:51.337Z,2.75
2022-08-03T23:43:52.374Z,3.95
2022-08-03T23:46:08.516Z,2.65
2022-08-03T23:48:35.805Z,2.35
2022-08-03T23:51:20.679Z,2.00
2022-08-03T23:54:03.866Z,2.38
2022-08-03T23:56:39.035Z,2.33
2022-08-03T23:59:21.910Z,1.90
